Time;durP1;ratioP1;P1;durP2;ratioP2;P2;SDS_P1;SDS_P2;PMS_P1;PMS_P2;Temp;Humidity;BMP_temperature;BMP_pressure;BME280_temperature;BME280_humidity;BME280_pressure;Samples;Min_cycle;Max_cycle;Signal;HPM_P1;HPM_P2
2021/03/14 00:01:46;;;;;;;3.15;1.50;;;5.90;99.90;;;;;;5015282;28;20241;-72
2021/03/14 00:04:31;;;;;;;6.72;2.05;;;5.90;99.90;;;;;;5019746;28;20256;-73
2021/03/14 00:07:17;;;;;;;5.00;1.90;;;5.90;99.90;;;;;;5023575;28;20240;-73
2021/03/14 00:10:02;;;;;;;6.00;1.60;;;5.90;99.90;;;;;;5020075;28;21325;-72
2021/03/14 00:12:47;;;;;;;6.70;1.65;;;5.90;99.90;;;;;;5017565;28;20289;-72
2021/03/14 00:15:32;;;;;;;5.40;1.50;;;6.00;99.90;;;;;;5021794;28;20328;-73
2021/03/14 00:18:18;;;;;;;9.30;1.57;;;6.10;99.90;;;;;;5023512;28;20489;-73
2021/03/14 00:21:04;;;;;;;5.53;1.43;;;6.20;99.90;;;;;;5017786;28;20782;-73
2021/03/14 00:23:50;;;;;;;6.50;1.30;;;6.30;99.90;;;;;;5023075;28;20431;-72
2021/03/14 00:26:35;;;;;;;5.15;1.52;;;6.30;99.90;;;;;;5024914;28;21699;-72
2021/03/14 00:29:20;;;;;;;2.67;1.37;;;6.30;99.90;;;;;;5016485;28;20354;-72
2021/03/14 00:32:05;;;;;;;4.70;1.70;;;6.40;99.90;;;;;;5021512;28;20466;-72
2021/03/14 00:34:51;;;;;;;5.15;1.55;;;6.40;99.90;;;;;;5017961;28;20325;-72
2021/03/14 00:37:36;;;;;;;7.95;1.73;;;6.40;99.90;;;;;;5016791;28;20230;-72
2021/03/14 00:40:24;;;;;;;3.37;1.40;;;6.50;99.90;;;;;;5015862;28;20307;-72
2021/03/14 00:43:10;;;;;;;8.85;1.60;;;6.40;99.90;;;;;;5019925;28;20455;-73
2021/03/14 00:45:55;;;;;;;6.07;1.70;;;6.50;99.90;;;;;;5016228;28;20256;-72
2021/03/14 00:48:40;;;;;;;2.83;1.27;;;6.40;99.90;;;;;;5017553;28;20464;-72
2021/03/14 00:51:25;;;;;;;7.10;1.33;;;6.30;99.90;;;;;;5015912;28;20438;-72
2021/03/14 00:54:11;;;;;;;7.45;1.67;;;6.30;99.90;;;;;;5014830;28;20501;-72
2021/03/14 00:56:57;;;;;;;8.80;1.10;;;6.30;99.90;;;;;;5021759;28;20259;-72
2021/03/14 00:59:42;;;;;;;5.73;1.40;;;6.30;99.90;;;;;;5027641;28;20523;-73
2021/03/14 01:02:27;;;;;;;4.38;1.30;;;6.20;99.90;;;;;;5028116;28;20452;-72
2021/03/14 01:05:13;;;;;;;7.47;1.40;;;6.20;99.90;;;;;;5028601;28;20678;-72
2021/03/14 01:07:58;;;;;;;3.40;1.30;;;6.20;99.90;;;;;;5024341;28;20253;-72
2021/03/14 01:10:43;;;;;;;3.05;1.20;;;6.10;99.90;;;;;;5027119;28;20451;-73
2021/03/14 01:13:29;;;;;;;5.10;1.58;;;6.10;99.90;;;;;;5022947;28;20304;-72
2021/03/14 01:16:15;;;;;;;4.85;1.25;;;6.20;99.90;;;;;;5018838;28;20245;-72
2021/03/14 01:19:00;;;;;;;2.07;1.10;;;6.20;99.90;;;;;;5029986;28;20730;-72
2021/03/14 01:21:45;;;;;;;6.63;1.20;;;6.10;99.90;;;;;;5021480;28;20492;-72
2021/03/14 01:24:30;;;;;;;2.25;1.35;;;6.00;99.90;;;;;;5022158;28;20479;-72
2021/03/14 01:27:15;;;;;;;4.40;1.42;;;6.10;99.90;;;;;;5026602;28;20205;-72
2021/03/14 01:30:01;;;;;;;4.23;1.20;;;6.00;99.90;;;;;;5021552;28;20224;-72
2021/03/14 01:32:46;;;;;;;9.30;1.70;;;5.90;99.90;;;;;;5021780;28;20488;-72
2021/03/14 01:35:31;;;;;;;3.97;1.30;;;6.10;99.90;;;;;;5022731;28;20452;-72
2021/03/14 01:38:17;;;;;;;3.77;1.43;;;6.20;99.90;;;;;;5021590;28;21348;-72
2021/03/14 01:41:03;;;;;;;6.63;1.55;;;6.10;99.90;;;;;;5016460;28;20549;-72
2021/03/14 01:43:48;;;;;;;6.20;1.57;;;6.10;99.90;;;;;;5021111;28;20226;-72
2021/03/14 01:46:34;;;;;;;3.85;1.48;;;6.10;99.90;;;;;;5025680;28;20934;-72
2021/03/14 01:49:19;;;;;;;5.47;1.90;;;6.00;99.90;;;;;;5024809;28;20245;-72
2021/03/14 01:52:05;;;;;;;5.18;1.85;;;6.00;99.90;;;;;;5021173;28;20452;-72
2021/03/14 01:54:50;;;;;;;6.15;1.85;;;6.10;99.90;;;;;;5020793;28;20221;-72
2021/03/14 01:57:36;;;;;;;4.95;1.40;;;6.10;99.90;;;;;;5021772;28;20228;-72
2021/03/14 02:00:24;;;;;;;10.45;2.55;;;6.10;99.90;;;;;;5024517;28;20236;-72
2021/03/14 02:03:10;;;;;;;4.50;2.25;;;6.10;99.90;;;;;;5019456;28;20332;-72
2021/03/14 02:05:55;;;;;;;4.65;1.80;;;6.10;99.90;;;;;;5025756;28;20197;-73
2021/03/14 02:08:40;;;;;;;7.10;2.13;;;6.00;99.90;;;;;;5021198;28;20583;-72
2021/03/14 02:11:28;;;;;;;6.38;1.80;;;6.10;99.90;;;;;;5025142;28;21035;-72
2021/03/14 02:14:16;;;;;;;5.13;1.65;;;6.10;99.90;;;;;;5022703;28;20209;-72
2021/03/14 02:17:02;;;;;;;3.25;2.00;;;5.90;99.90;;;;;;5023317;28;20225;-72
2021/03/14 02:19:52;;;;;;;9.68;1.95;;;5.80;99.90;;;;;;5023392;28;20223;-72
2021/03/14 02:22:41;;;;;;;4.70;2.15;;;5.90;99.90;;;;;;5025511;28;20296;-72
2021/03/14 02:25:32;;;;;;;3.45;1.90;;;6.00;99.90;;;;;;5027429;28;20201;-72
2021/03/14 02:28:19;;;;;;;5.20;1.90;;;6.00;99.90;;;;;;5028371;28;20424;-73
2021/03/14 02:31:05;;;;;;;4.57;2.10;;;5.90;99.90;;;;;;5024635;28;20314;-72
2021/03/14 02:33:55;;;;;;;5.22;2.53;;;5.80;99.90;;;;;;5024427;28;20256;-72
2021/03/14 02:36:44;;;;;;;4.50;2.08;;;5.80;99.90;;;;;;5024219;28;20229;-72
2021/03/14 02:39:29;;;;;;;5.82;2.15;;;5.80;99.90;;;;;;5022754;28;20225;-72
2021/03/14 02:42:15;;;;;;;4.78;2.15;;;5.70;99.90;;;;;;5021636;28;20209;-72
2021/03/14 02:45:02;;;;;;;8.23;2.40;;;5.80;99.90;;;;;;5023960;28;20660;-72
2021/03/14 02:47:47;;;;;;;6.90;3.27;;;5.80;99.90;;;;;;5021598;28;20199;-72
2021/03/14 02:50:33;;;;;;;8.27;2.30;;;5.70;99.90;;;;;;5021829;28;21013;-73
2021/03/14 02:53:20;;;;;;;7.90;1.95;;;5.90;99.90;;;;;;5018381;28;20210;-72
2021/03/14 02:56:07;;;;;;;6.85;1.88;;;5.80;99.90;;;;;;5024627;28;20745;-72
2021/03/14 02:58:54;;;;;;;11.65;2.42;;;5.80;99.90;;;;;;5019681;28;20226;-72
2021/03/14 03:01:40;;;;;;;5.68;1.67;;;5.70;99.90;;;;;;5025161;28;20197;-72
2021/03/14 03:04:26;;;;;;;7.70;2.03;;;5.80;99.90;;;;;;5022031;28;20290;-72
2021/03/14 03:07:14;;;;;;;8.07;2.13;;;5.80;99.90;;;;;;5016688;28;20663;-73
2021/03/14 03:10:00;;;;;;;6.00;2.28;;;5.70;99.90;;;;;;5023586;28;20549;-72
2021/03/14 03:12:47;;;;;;;11.93;2.25;;;5.60;99.90;;;;;;5023366;28;20205;-72
2021/03/14 03:15:33;;;;;;;3.50;1.93;;;5.70;99.90;;;;;;5020298;28;20577;-72
2021/03/14 03:18:20;;;;;;;8.43;2.67;;;5.70;99.90;;;;;;5018179;28;20476;-72
2021/03/14 03:21:07;;;;;;;5.82;2.00;;;5.70;99.90;;;;;;5021541;28;20486;-73
2021/03/14 03:23:52;;;;;;;6.45;2.60;;;5.70;99.90;;;;;;5023537;28;20237;-72
2021/03/14 03:26:38;;;;;;;7.15;2.25;;;5.70;99.90;;;;;;5023518;28;20222;-73
2021/03/14 03:29:24;;;;;;;7.60;2.30;;;5.70;99.90;;;;;;5018493;28;20249;-72
2021/03/14 03:32:09;;;;;;;7.00;2.10;;;5.70;99.90;;;;;;5017524;28;20214;-73
2021/03/14 03:34:55;;;;;;;3.53;1.90;;;5.70;99.90;;;;;;5026141;28;20452;-72
2021/03/14 03:37:41;;;;;;;5.97;2.17;;;5.70;99.90;;;;;;5021447;28;20305;-73
2021/03/14 03:40:28;;;;;;;4.83;2.00;;;5.80;99.90;;;;;;5022119;28;20323;-72
2021/03/14 03:43:19;;;;;;;6.05;2.22;;;5.70;99.90;;;;;;5023147;28;20540;-72
2021/03/14 03:46:08;;;;;;;4.13;2.03;;;5.70;99.90;;;;;;5023421;28;20265;-72
2021/03/14 03:48:56;;;;;;;4.77;1.70;;;5.80;99.90;;;;;;5022078;28;20692;-72
2021/03/14 03:51:42;;;;;;;3.07;1.60;;;5.80;99.90;;;;;;5023702;28;20524;-73
2021/03/14 03:54:29;;;;;;;6.15;2.30;;;5.70;99.90;;;;;;5018284;28;20435;-72
2021/03/14 03:57:15;;;;;;;4.55;1.45;;;5.70;99.90;;;;;;5020973;28;20296;-73
2021/03/14 04:00:02;;;;;;;3.95;1.85;;;5.60;99.90;;;;;;5019483;28;20229;-72
2021/03/14 04:02:48;;;;;;;9.40;2.00;;;5.50;99.90;;;;;;5020101;28;20197;-72
2021/03/14 04:05:34;;;;;;;8.85;2.20;;;5.40;99.90;;;;;;5021943;28;20209;-73
2021/03/14 04:08:20;;;;;;;4.60;1.83;;;5.20;99.90;;;;;;5020740;28;20209;-72
2021/03/14 04:11:07;;;;;;;3.90;1.90;;;4.90;99.90;;;;;;5023539;28;20611;-72
2021/03/14 04:13:55;;;;;;;6.07;2.00;;;4.80;99.90;;;;;;5019383;28;20212;-72
2021/03/14 04:16:41;;;;;;;5.47;2.10;;;4.80;99.90;;;;;;5019754;28;20225;-72
2021/03/14 04:19:29;;;;;;;2.95;1.80;;;4.70;99.90;;;;;;5019548;28;20668;-72
2021/03/14 04:22:15;;;;;;;5.60;2.15;;;4.70;99.90;;;;;;5020274;28;20210;-72
2021/03/14 04:25:02;;;;;;;4.20;2.40;;;4.70;99.90;;;;;;5019800;28;20700;-72
2021/03/14 04:27:50;;;;;;;6.32;2.67;;;4.70;99.90;;;;;;5023721;28;20741;-72
2021/03/14 04:30:36;;;;;;;3.72;2.15;;;4.80;99.90;;;;;;5022263;28;20320;-72
2021/03/14 04:33:22;;;;;;;5.50;2.50;;;4.80;99.90;;;;;;5018113;28;20214;-73
2021/03/14 04:36:08;;;;;;;4.70;1.95;;;4.80;99.90;;;;;;5025751;28;20208;-72
2021/03/14 04:38:55;;;;;;;5.05;2.47;;;5.00;99.90;;;;;;5020518;28;20268;-72
2021/03/14 04:41:43;;;;;;;4.47;2.30;;;5.10;99.90;;;;;;5027386;28;20324;-73
2021/03/14 04:44:30;;;;;;;7.40;2.90;;;5.00;99.90;;;;;;5026060;28;20217;-72
2021/03/14 04:47:15;;;;;;;7.85;3.25;;;5.00;99.90;;;;;;5021705;28;20202;-72
2021/03/14 04:50:00;;;;;;;4.25;2.28;;;5.10;99.90;;;;;;5027080;28;20318;-72
2021/03/14 04:52:47;;;;;;;5.80;3.22;;;5.20;99.90;;;;;;5023712;28;20651;-72
2021/03/14 04:55:34;;;;;;;4.63;2.33;;;5.20;99.90;;;;;;5024100;28;20695;-72
2021/03/14 04:58:22;;;;;;;5.13;2.60;;;5.30;99.90;;;;;;5020947;28;20468;-72
2021/03/14 05:01:09;;;;;;;5.68;2.70;;;5.10;99.90;;;;;;5026756;28;20548;-71
2021/03/14 05:03:56;;;;;;;6.47;2.90;;;5.10;99.90;;;;;;5025267;28;20293;-72
2021/03/14 05:06:43;;;;;;;5.18;2.67;;;5.10;99.90;;;;;;5020013;28;20241;-72
2021/03/14 05:09:29;;;;;;;4.37;3.37;;;5.10;99.90;;;;;;5025651;28;20817;-72
2021/03/14 05:12:15;;;;;;;9.13;3.33;;;5.00;99.90;;;;;;5022092;28;21208;-72
2021/03/14 05:15:02;;;;;;;6.50;2.90;;;5.10;99.90;;;;;;5020859;28;20511;-73
2021/03/14 05:17:48;;;;;;;5.20;3.30;;;5.20;99.90;;;;;;5022870;28;20265;-72
2021/03/14 05:20:34;;;;;;;5.68;3.72;;;5.20;99.90;;;;;;5025169;28;20992;-72
2021/03/14 05:23:19;;;;;;;7.95;3.25;;;5.30;99.90;;;;;;5026322;28;20744;-72
2021/03/14 05:26:09;;;;;;;6.53;3.25;;;5.30;99.90;;;;;;5024684;28;20228;-72
2021/03/14 05:28:56;;;;;;;5.22;3.20;;;5.30;99.90;;;;;;5027069;28;20721;-72
2021/03/14 05:31:42;;;;;;;6.15;3.38;;;5.20;99.90;;;;;;5023776;28;20578;-72
2021/03/14 05:34:27;;;;;;;10.35;3.45;;;5.30;99.90;;;;;;5026950;28;20295;-72
2021/03/14 05:37:12;;;;;;;4.88;3.40;;;5.30;99.90;;;;;;5025424;28;20225;-72
2021/03/14 05:39:57;;;;;;;4.45;3.20;;;5.30;99.90;;;;;;5027321;28;20838;-72
2021/03/14 05:42:43;;;;;;;5.90;3.63;;;5.20;99.90;;;;;;5024333;28;20573;-72
2021/03/14 05:45:28;;;;;;;6.10;3.40;;;5.20;99.90;;;;;;5024651;28;20503;-72
2021/03/14 05:48:14;;;;;;;5.60;3.00;;;5.30;99.90;;;;;;5024568;28;20267;-72
2021/03/14 05:50:59;;;;;;;7.57;3.30;;;5.40;99.90;;;;;;5025980;28;20594;-72
2021/03/14 05:53:46;;;;;;;3.45;2.85;;;5.40;99.90;;;;;;5022896;28;20453;-72
2021/03/14 05:56:32;;;;;;;7.32;3.85;;;5.40;99.90;;;;;;5022776;28;20205;-72
2021/03/14 05:59:19;;;;;;;4.10;2.83;;;5.30;99.90;;;;;;5027174;28;20213;-72
2021/03/14 06:02:05;;;;;;;7.20;3.15;;;5.20;99.90;;;;;;5025802;28;20248;-72
2021/03/14 06:04:54;;;;;;;3.40;2.70;;;5.20;99.90;;;;;;5022612;28;20206;-72
2021/03/14 06:07:39;;;;;;;10.10;3.67;;;5.20;99.90;;;;;;5026979;28;20257;-72
2021/03/14 06:10:24;;;;;;;12.98;3.50;;;5.20;99.90;;;;;;5024016;28;20580;-71
2021/03/14 06:13:09;;;;;;;8.90;3.50;;;5.20;99.90;;;;;;5024962;28;20257;-72
2021/03/14 06:15:55;;;;;;;10.80;4.25;;;5.10;99.90;;;;;;5019744;28;20445;-72
2021/03/14 06:18:40;;;;;;;5.70;3.50;;;5.20;99.90;;;;;;5025419;28;20254;-72
2021/03/14 06:21:28;;;;;;;8.82;3.72;;;5.20;99.90;;;;;;5024049;28;20294;-72
2021/03/14 06:24:14;;;;;;;4.15;2.88;;;5.20;99.90;;;;;;5020940;28;21633;-72
2021/03/14 06:26:59;;;;;;;6.13;2.85;;;5.30;99.90;;;;;;5025673;28;20330;-72
2021/03/14 06:29:44;;;;;;;6.07;2.75;;;5.30;99.90;;;;;;5018911;28;20337;-72
2021/03/14 06:32:29;;;;;;;7.65;3.03;;;5.30;99.90;;;;;;5024504;28;20265;-72
2021/03/14 06:35:19;;;;;;;7.45;3.58;;;5.30;99.90;;;;;;5024262;28;20333;-72
2021/03/14 06:38:25;;;;;;;9.20;4.47;;;5.20;99.90;;;;;;5020528;28;20217;-73
2021/03/14 06:41:16;;;;;;;4.33;2.43;;;5.20;99.90;;;;;;5023768;28;20710;-72
2021/03/14 06:44:01;;;;;;;4.27;2.50;;;5.30;99.90;;;;;;5022357;28;20475;-72
2021/03/14 06:46:46;;;;;;;6.72;2.47;;;5.20;99.90;;;;;;5019895;28;20448;-72
2021/03/14 06:49:36;;;;;;;7.30;2.92;;;5.20;99.90;;;;;;5020771;28;20304;-72
2021/03/14 06:52:22;;;;;;;9.60;2.40;;;5.20;99.90;;;;;;5022175;28;20745;-72
2021/03/14 06:55:25;;;;;;;9.93;2.40;;;5.20;99.90;;;;;;5017871;28;20237;-72
2021/03/14 06:58:24;;;;;;;5.85;2.80;;;5.30;99.90;;;;;;5022512;28;20233;-72
2021/03/14 07:01:12;;;;;;;10.88;2.72;;;5.10;99.90;;;;;;5026586;28;20221;-72
2021/03/14 07:03:57;;;;;;;2.78;1.90;;;5.20;99.90;;;;;;5023534;28;20228;-72
2021/03/14 07:06:42;;;;;;;3.70;2.40;;;5.30;99.90;;;;;;5020766;28;20209;-72
2021/03/14 07:09:27;;;;;;;4.97;2.78;;;5.20;99.90;;;;;;5021457;28;20226;-73
2021/03/14 07:12:19;;;;;;;5.10;2.37;;;5.30;99.90;;;;;;5019448;28;20201;-72
2021/03/14 07:15:12;;;;;;;8.23;3.30;;;5.40;99.90;;;;;;5026181;28;20888;-73
2021/03/14 07:18:00;;;;;;;5.87;2.57;;;5.50;99.90;;;;;;5022300;28;20224;-72
2021/03/14 07:20:46;;;;;;;7.88;2.40;;;5.60;99.90;;;;;;5016620;28;20488;-72
2021/03/14 07:23:34;;;;;;;17.60;10.88;;;5.70;99.90;;;;;;5026249;28;20212;-72
2021/03/14 07:26:38;;;;;;;18.10;10.63;;;5.70;99.90;;;;;;5022632;28;20248;-72
2021/03/14 07:29:26;;;;;;;24.60;10.73;;;5.80;99.90;;;;;;5020814;28;20477;-72
2021/03/14 07:32:11;;;;;;;17.70;9.27;;;5.80;99.90;;;;;;5021145;28;20452;-72
2021/03/14 07:34:56;;;;;;;18.33;9.73;;;5.80;99.90;;;;;;5020456;28;20205;-72
2021/03/14 07:37:42;;;;;;;23.40;13.20;;;5.90;99.90;;;;;;5016787;28;20230;-72
2021/03/14 07:40:30;;;;;;;8.35;4.90;;;5.80;99.90;;;;;;5024655;28;20463;-72
2021/03/14 07:43:15;;;;;;;15.70;5.43;;;5.90;99.90;;;;;;5023370;28;20201;-73
2021/03/14 07:46:01;;;;;;;8.30;4.70;;;6.00;99.90;;;;;;5017436;28;20457;-73
2021/03/14 07:48:48;;;;;;;8.63;4.30;;;6.10;99.90;;;;;;5021924;28;20278;-73
2021/03/14 07:51:34;;;;;;;11.70;4.80;;;6.20;99.90;;;;;;5014865;28;20431;-73
2021/03/14 07:54:26;;;;;;;7.00;4.60;;;6.20;99.90;;;;;;5021366;28;20459;-73
2021/03/14 07:57:13;;;;;;;10.00;5.10;;;6.00;99.90;;;;;;5021194;28;20527;-73
2021/03/14 07:59:58;;;;;;;10.97;5.13;;;6.00;99.90;;;;;;5019090;28;21038;-73
2021/03/14 08:02:53;;;;;;;25.33;8.83;;;6.10;99.90;;;;;;5017017;28;20455;-73
2021/03/14 08:05:51;;;;;;;12.00;5.50;;;6.20;99.90;;;;;;5015449;28;20464;-73
2021/03/14 08:08:47;;;;;;;6.70;4.03;;;6.10;99.90;;;;;;5021661;28;20499;-73
2021/03/14 08:11:33;;;;;;;8.13;5.00;;;6.10;99.90;;;;;;5023843;28;20439;-73
2021/03/14 08:14:42;;;;;;;12.83;6.50;;;6.20;99.90;;;;;;5021558;28;20449;-73
2021/03/14 08:17:35;;;;;;;16.83;8.13;;;6.20;99.90;;;;;;5020277;28;20446;-73
2021/03/14 08:20:38;;;;;;;15.47;9.00;;;6.30;99.90;;;;;;5025204;28;20229;-74
2021/03/14 08:23:40;;;;;;;8.63;5.20;;;6.30;99.90;;;;;;5024372;28;20451;-74
2021/03/14 08:26:28;;;;;;;9.73;5.57;;;6.40;99.90;;;;;;5015807;28;20537;-73
2021/03/14 08:29:13;;;;;;;24.20;10.17;;;6.40;99.90;;;;;;5021708;28;20197;-74
2021/03/14 08:31:59;;;;;;;13.13;6.18;;;6.40;99.90;;;;;;5016542;28;20471;-72
2021/03/14 08:34:45;;;;;;;23.70;11.23;;;6.40;99.90;;;;;;5021290;28;20206;-72
2021/03/14 08:37:32;;;;;;;5.97;3.50;;;6.50;99.90;;;;;;5018572;28;20563;-73
2021/03/14 08:40:17;;;;;;;18.33;7.07;;;6.50;99.90;;;;;;5022513;28;20472;-72
2021/03/14 08:43:02;;;;;;;6.70;3.40;;;6.60;99.90;;;;;;5019666;28;20503;-73
2021/03/14 08:45:48;;;;;;;8.80;4.88;;;6.40;99.90;;;;;;5021445;28;20453;-72
2021/03/14 08:48:33;;;;;;;10.30;5.27;;;6.40;99.90;;;;;;5024207;28;20967;-72
2021/03/14 08:51:18;;;;;;;5.40;4.10;;;6.50;99.90;;;;;;5022923;28;20515;-71
2021/03/14 08:54:05;;;;;;;9.83;6.57;;;6.60;99.90;;;;;;5024550;28;21557;-72
2021/03/14 08:56:54;;;;;;;7.93;5.07;;;6.60;99.90;;;;;;5023173;28;20461;-72
2021/03/14 08:59:46;;;;;;;8.03;4.20;;;6.50;99.90;;;;;;5023618;28;20352;-72
2021/03/14 09:02:33;;;;;;;14.70;4.93;;;6.40;99.90;;;;;;5021965;28;20456;-73
2021/03/14 09:05:21;;;;;;;15.40;6.10;;;6.20;99.90;;;;;;5019786;28;20216;-72
2021/03/14 09:08:06;;;;;;;7.35;3.85;;;6.10;99.90;;;;;;5019176;28;20456;-73
2021/03/14 09:10:52;;;;;;;9.20;3.73;;;6.20;99.90;;;;;;5021437;28;20225;-73
2021/03/14 09:13:37;;;;;;;8.98;3.78;;;6.20;99.90;;;;;;5022964;28;20534;-73
2021/03/14 09:16:44;;;;;;;5.90;3.23;;;6.20;99.90;;;;;;5023059;28;20292;-73
2021/03/14 09:19:35;;;;;;;9.20;3.17;;;6.30;99.90;;;;;;5024198;28;20522;-72
2021/03/14 09:22:21;;;;;;;6.38;2.97;;;6.30;99.90;;;;;;5026356;28;20256;-72
2021/03/14 09:25:08;;;;;;;9.60;3.70;;;6.20;99.90;;;;;;5019740;28;20299;-73
2021/03/14 09:27:54;;;;;;;5.73;3.00;;;6.20;99.90;;;;;;5027642;28;20464;-72
2021/03/14 09:30:39;;;;;;;10.17;3.33;;;6.40;99.90;;;;;;5025439;28;20527;-72
2021/03/14 09:33:24;;;;;;;9.73;2.90;;;6.60;99.90;;;;;;5022865;28;20443;-72
2021/03/14 09:36:10;;;;;;;9.50;2.83;;;6.70;99.90;;;;;;5024656;28;20432;-72
2021/03/14 09:38:58;;;;;;;6.72;2.70;;;6.90;99.90;;;;;;5020899;28;20476;-73
2021/03/14 09:41:44;;;;;;;7.83;2.70;;;7.00;99.90;;;;;;5021180;28;20253;-71
2021/03/14 09:44:30;;;;;;;11.17;3.00;;;7.10;99.90;;;;;;5023509;28;20495;-71
2021/03/14 09:47:15;;;;;;;10.63;2.73;;;7.00;99.90;;;;;;5026054;28;20452;-71
2021/03/14 09:50:02;;;;;;;6.20;2.30;;;7.10;99.90;;;;;;5021946;28;20507;-74
2021/03/14 09:52:47;;;;;;;4.23;2.37;;;7.10;99.90;;;;;;5021765;28;20455;-73
2021/03/14 09:55:34;;;;;;;9.25;3.05;;;7.10;99.90;;;;;;5023621;28;20824;-72
2021/03/14 09:58:20;;;;;;;6.75;3.35;;;7.00;99.90;;;;;;5024571;28;20229;-72
2021/03/14 10:01:09;;;;;;;7.40;2.90;;;6.90;99.90;;;;;;5020180;28;20585;-72
2021/03/14 10:03:59;;;;;;;10.80;2.73;;;6.90;99.90;;;;;;5022174;28;20465;-73
2021/03/14 10:06:44;;;;;;;7.13;2.60;;;7.00;99.90;;;;;;5025215;28;20484;-72
2021/03/14 10:09:31;;;;;;;4.60;2.70;;;7.00;99.90;;;;;;5028277;28;20939;-72
2021/03/14 10:12:17;;;;;;;13.23;3.13;;;6.90;99.90;;;;;;5019231;28;20492;-72
2021/03/14 10:15:03;;;;;;;8.52;3.25;;;6.80;99.90;;;;;;5021499;28;21430;-73
2021/03/14 10:17:49;;;;;;;5.85;2.60;;;6.70;99.90;;;;;;5023857;28;20225;-73
2021/03/14 10:20:36;;;;;;;7.28;2.75;;;6.70;99.90;;;;;;5026399;28;20225;-73
2021/03/14 10:23:23;;;;;;;8.43;3.33;;;6.70;99.90;;;;;;5022639;28;20594;-73
2021/03/14 10:26:09;;;;;;;12.40;2.85;;;6.90;99.90;;;;;;5019480;28;20499;-73
2021/03/14 10:28:54;;;;;;;7.50;2.60;;;6.90;99.90;;;;;;5020230;28;20575;-73
2021/03/14 10:31:39;;;;;;;11.32;3.00;;;6.90;99.90;;;;;;5022882;28;20197;-73
2021/03/14 10:34:26;;;;;;;6.20;3.40;;;6.90;99.90;;;;;;5023248;28;20205;-73
2021/03/14 10:37:25;;;;;;;8.60;2.43;;;7.00;99.90;;;;;;5017226;28;20996;-73
2021/03/14 10:40:14;;;;;;;4.97;2.20;;;7.00;99.90;;;;;;5026025;28;20511;-73
2021/03/14 10:42:59;;;;;;;5.95;2.22;;;7.20;99.90;;;;;;5024009;28;20210;-72
2021/03/14 10:45:46;;;;;;;9.43;2.60;;;7.40;99.90;;;;;;5023629;28;20202;-73
2021/03/14 10:48:30;;;;;;;5.77;2.53;;;7.40;99.90;;;;;;5021930;28;20589;-73
2021/03/14 10:51:17;;;;;;;5.60;2.73;;;7.50;99.90;;;;;;5022257;28;20508;-73
2021/03/14 10:54:04;;;;;;;8.50;2.67;;;7.80;99.90;;;;;;5023350;28;20532;-73
2021/03/14 10:56:51;;;;;;;10.10;3.60;;;7.90;99.90;;;;;;5021506;28;20484;-73
2021/03/14 10:59:36;;;;;;;4.95;2.22;;;7.80;99.90;;;;;;5025792;28;20588;-74
2021/03/14 11:02:24;;;;;;;7.00;2.97;;;7.80;99.90;;;;;;5020384;28;20767;-73
2021/03/14 11:05:10;;;;;;;6.68;3.00;;;7.50;99.90;;;;;;5020003;28;20476;-73
2021/03/14 11:08:00;;;;;;;7.85;3.00;;;7.30;99.90;;;;;;5027510;28;20702;-73
2021/03/14 11:10:56;;;;;;;12.40;3.10;;;7.20;99.90;;;;;;5022386;28;20325;-73
2021/03/14 11:13:41;;;;;;;6.63;2.70;;;7.30;99.90;;;;;;5019964;28;20498;-74
2021/03/14 11:16:26;;;;;;;7.30;2.70;;;7.30;99.90;;;;;;5024754;28;20533;-73
2021/03/14 11:19:11;;;;;;;9.43;3.83;;;7.40;99.90;;;;;;5020037;28;21271;-72
2021/03/14 11:21:56;;;;;;;7.97;2.80;;;7.40;99.90;;;;;;5020425;28;20964;-74
2021/03/14 11:24:43;;;;;;;10.23;2.60;;;7.40;99.90;;;;;;5015287;28;20507;-74
2021/03/14 11:27:29;;;;;;;31.07;3.40;;;7.40;99.90;;;;;;5023383;28;21542;-73
2021/03/14 11:30:15;;;;;;;9.23;2.65;;;7.40;99.90;;;;;;5020658;28;20576;-72
2021/03/14 11:33:00;;;;;;;4.67;2.13;;;7.40;99.90;;;;;;5022900;28;20269;-74
2021/03/14 11:35:46;;;;;;;16.23;3.20;;;7.50;99.90;;;;;;5020918;28;20456;-71
2021/03/14 11:38:31;;;;;;;6.97;2.60;;;7.40;99.90;;;;;;5018519;28;20475;-73
2021/03/14 11:41:17;;;;;;;3.67;2.30;;;7.40;99.90;;;;;;5014708;28;20503;-75
2021/03/14 11:44:02;;;;;;;8.40;2.78;;;7.40;99.90;;;;;;5019011;28;20945;-75
2021/03/14 11:46:48;;;;;;;5.13;2.10;;;7.40;99.90;;;;;;5017509;28;20229;-75
2021/03/14 11:49:32;;;;;;;10.33;3.20;;;7.40;99.90;;;;;;5019530;28;20519;-74
2021/03/14 11:52:18;;;;;;;9.10;2.37;;;7.50;99.90;;;;;;5023278;28;21066;-74
2021/03/14 11:55:04;;;;;;;7.10;2.13;;;7.50;99.90;;;;;;5016276;28;20447;-74
2021/03/14 11:57:50;;;;;;;8.57;2.17;;;7.50;99.90;;;;;;5018375;28;20462;-74
2021/03/14 12:00:35;;;;;;;5.80;1.90;;;7.40;99.90;;;;;;5012441;28;21045;-73
2021/03/14 12:03:20;;;;;;;4.10;1.83;;;7.50;99.90;;;;;;5018101;28;20464;-74
2021/03/14 12:06:06;;;;;;;2.77;1.53;;;7.40;99.90;;;;;;5013246;28;20650;-74
2021/03/14 12:08:51;;;;;;;4.00;2.33;;;7.20;99.90;;;;;;5017745;28;20476;-74
2021/03/14 12:11:36;;;;;;;9.00;2.37;;;7.10;99.90;;;;;;5011663;28;20846;-74
2021/03/14 12:14:22;;;;;;;4.67;3.50;;;7.10;99.90;;;;;;5020653;28;20456;-74
2021/03/14 12:17:08;;;;;;;6.00;4.13;;;7.10;99.90;;;;;;5018425;28;20668;-74
2021/03/14 12:19:53;;;;;;;8.48;3.53;;;6.80;99.90;;;;;;5021462;28;20233;-74
2021/03/14 12:22:38;;;;;;;4.72;2.25;;;6.80;99.90;;;;;;5016588;28;20275;-74
2021/03/14 12:25:24;;;;;;;5.20;2.20;;;6.70;99.90;;;;;;5011975;28;20221;-74
2021/03/14 12:28:09;;;;;;;2.63;1.85;;;6.70;99.90;;;;;;5017530;28;20634;-73
2021/03/14 12:30:55;;;;;;;4.72;2.60;;;6.60;99.90;;;;;;5017818;28;20230;-74
2021/03/14 12:33:40;;;;;;;5.10;2.75;;;6.70;99.90;;;;;;5012891;28;20259;-73
2021/03/14 12:36:25;;;;;;;7.57;3.33;;;6.70;99.90;;;;;;5010865;28;20210;-73
2021/03/14 12:39:10;;;;;;;6.50;2.13;;;6.70;99.90;;;;;;5016468;28;20236;-73
2021/03/14 12:41:56;;;;;;;3.15;1.83;;;6.70;99.90;;;;;;5018784;28;20305;-73
2021/03/14 12:44:41;;;;;;;3.67;2.00;;;6.50;99.90;;;;;;5014627;28;20256;-73
2021/03/14 12:47:27;;;;;;;3.42;1.60;;;6.50;99.90;;;;;;5020293;28;20888;-73
2021/03/14 12:50:13;;;;;;;5.60;2.30;;;6.50;99.90;;;;;;5014092;28;21023;-73
2021/03/14 12:52:59;;;;;;;5.18;2.45;;;6.50;99.90;;;;;;5022149;28;21393;-73
2021/03/14 12:55:44;;;;;;;5.93;2.63;;;6.50;99.90;;;;;;5020357;28;20705;-73
2021/03/14 12:58:29;;;;;;;3.40;1.88;;;6.30;99.90;;;;;;5024585;28;20326;-72
2021/03/14 13:01:15;;;;;;;3.20;2.47;;;6.30;99.90;;;;;;5023922;28;20711;-73
2021/03/14 13:04:01;;;;;;;4.55;3.25;;;6.30;99.90;;;;;;5026963;28;20603;-73
2021/03/14 13:06:46;;;;;;;3.80;2.90;;;6.30;99.90;;;;;;5023664;28;20213;-72
2021/03/14 13:09:31;;;;;;;4.07;2.83;;;6.30;99.90;;;;;;5026921;28;20503;-72
2021/03/14 13:12:16;;;;;;;3.88;3.00;;;6.30;99.90;;;;;;5024745;28;20281;-74
2021/03/14 13:15:01;;;;;;;8.43;3.50;;;6.20;99.90;;;;;;5022682;28;20254;-74
2021/03/14 13:17:48;;;;;;;3.63;3.00;;;6.30;99.90;;;;;;5022418;28;20522;-74
2021/03/14 13:20:34;;;;;;;3.65;2.55;;;6.40;99.90;;;;;;5024308;28;20268;-74
2021/03/14 13:23:19;;;;;;;6.38;2.80;;;6.40;99.90;;;;;;5027145;28;20249;-73
2021/03/14 13:26:05;;;;;;;4.13;2.30;;;6.50;99.90;;;;;;5018613;28;20276;-73
2021/03/14 13:28:50;;;;;;;4.60;2.70;;;6.50;99.90;;;;;;5024426;28;20468;-73
2021/03/14 13:31:36;;;;;;;5.63;2.60;;;6.40;99.90;;;;;;5024723;28;20293;-74
2021/03/14 13:34:21;;;;;;;3.35;2.10;;;6.40;99.90;;;;;;5020604;28;20447;-74
2021/03/14 13:37:08;;;;;;;2.80;1.70;;;6.30;99.90;;;;;;5017520;28;20249;-74
2021/03/14 13:39:53;;;;;;;4.40;2.22;;;6.40;99.90;;;;;;5024073;28;20480;-73
2021/03/14 13:42:39;;;;;;;3.28;2.00;;;6.30;99.90;;;;;;5021244;28;20257;-74
2021/03/14 13:45:25;;;;;;;3.97;2.53;;;6.30;99.90;;;;;;5024502;28;20201;-74
2021/03/14 13:48:10;;;;;;;4.10;2.30;;;6.40;99.90;;;;;;5020607;28;20214;-75
2021/03/14 13:50:55;;;;;;;5.65;2.35;;;6.50;99.90;;;;;;5023958;28;20500;-74
2021/03/14 13:53:41;;;;;;;5.25;2.10;;;6.50;99.90;;;;;;5022731;28;20215;-75
2021/03/14 13:56:26;;;;;;;4.23;2.20;;;6.50;99.90;;;;;;5021272;28;20233;-74
2021/03/14 13:59:11;;;;;;;6.65;2.50;;;6.30;99.90;;;;;;5020765;28;20508;-74
2021/03/14 14:01:56;;;;;;;4.15;2.33;;;6.20;99.90;;;;;;5024680;28;20255;-74
2021/03/14 14:04:41;;;;;;;5.40;2.78;;;6.20;99.90;;;;;;5015122;28;20555;-74
2021/03/14 14:07:27;;;;;;;6.53;2.65;;;6.20;99.90;;;;;;5023496;28;20695;-75
2021/03/14 14:10:13;;;;;;;5.18;2.50;;;6.10;99.90;;;;;;5022226;28;20301;-74
2021/03/14 14:12:58;;;;;;;8.25;2.80;;;6.10;99.90;;;;;;5015898;28;20722;-74
2021/03/14 14:15:43;;;;;;;3.83;2.20;;;6.20;99.90;;;;;;5022219;28;20307;-74
2021/03/14 14:18:28;;;;;;;5.47;3.45;;;6.20;99.90;;;;;;5020716;28;20739;-75
2021/03/14 14:21:13;;;;;;;7.00;3.07;;;6.20;99.90;;;;;;5021712;28;20256;-74
2021/03/14 14:24:00;;;;;;;6.18;2.63;;;6.30;99.90;;;;;;5020856;28;20448;-74
2021/03/14 14:26:46;;;;;;;12.93;2.60;;;6.50;99.90;;;;;;5020212;28;20253;-75
2021/03/14 14:29:32;;;;;;;3.33;2.13;;;6.60;99.90;;;;;;5021534;28;20464;-74
2021/03/14 14:32:17;;;;;;;4.37;2.97;;;6.60;99.90;;;;;;5021442;28;20456;-74
2021/03/14 14:35:02;;;;;;;6.60;3.45;;;6.60;99.90;;;;;;5022862;28;20529;-74
2021/03/14 14:37:47;;;;;;;5.73;2.90;;;6.70;99.90;;;;;;5020880;28;20261;-73